PWSweather.com
Personal Weather Stations
Station Observations
COONRAPIDS
Minneapolis, MN 55433

Minneapolis, MN 55433

Lat: 45.187721, Lon: -93.36828

Elevation: 898

Station Type: Davis Vantage Pro 2

High Low Average
Temperature 36.5°F2.5°C 10.6°F-11.9°C 23.6°F-4.7°C
Dew Point 30.8°F-0.7°C 0.8°F-17.3°C 13.7°F-10.2°C
Winds 10.4 mph 16.7 kmh Calm Calm 4.0 mph WNW6.4 kmh WNW
Wind Gusts 23.0 mph37.0 kmh -- 10.0 mph16.1 kmh
Humidity 88% 55% 66%
Pressure 30.30 in1026.1 mb 29.68 in1005.1 mb -
Precipitation 0.01 in0.3 mm - -
Hour Temp Dew Point Humidity Winds Wind Gusts Pressure Precip Precip Rate Daily Precip Total
12:00 AM 33.3°F0.7°C 30.1°F-1.1°C 88% Calm Calm -- 29.69 in1005.4 mb - 0.00 in0.0 mm 0.05 in1.3 mm
12:10 AM 33.2°F0.7°C 30.0°F-1.1°C 88% Calm Calm -- 29.69 in1005.4 mb - 0.00 in0.0 mm 0.05 in1.3 mm
12:20 AM 33.2°F0.7°C 30.0°F-1.1°C 88% Calm Calm -- 29.69 in1005.4 mb - 0.00 in0.0 mm 0.05 in1.3 mm
12:30 AM 33.3°F0.7°C 30.1°F-1.1°C 88% Calm Calm -- 29.69 in1005.4 mb - 0.00 in0.0 mm 0.05 in1.3 mm
12:40 AM 33.2°F0.7°C 30.0°F-1.1°C 88% Calm Calm -- 29.69 in1005.4 mb - 0.00 in0.0 mm 0.05 in1.3 mm
12:50 AM 32.9°F0.5°C 29.8°F-1.2°C 88% Calm Calm -- 29.69 in1005.4 mb - 0.00 in0.0 mm 0.05 in1.3 mm
01:00 AM 32.8°F0.4°C 29.6°F-1.3°C 88% Calm Calm -- 29.68 in1005.1 mb - 0.00 in0.0 mm 0.00 in0.0 mm
01:10 AM 32.6°F0.3°C 29.4°F-1.4°C 88% Calm Calm -- 29.69 in1005.4 mb - 0.00 in0.0 mm 0.00 in0.0 mm
01:20 AM 32.7°F0.4°C 29.5°F-1.4°C 88% Calm Calm -- 29.69 in1005.4 mb - 0.00 in0.0 mm 0.00 in0.0 mm
01:30 AM 32.9°F0.5°C 29.7°F-1.3°C 88% Calm Calm -- 29.70 in1005.8 mb - 0.00 in0.0 mm 0.00 in0.0 mm
01:40 AM 33.1°F0.6°C 29.9°F-1.2°C 88% Calm Calm -- 29.69 in1005.4 mb - 0.00 in0.0 mm 0.00 in0.0 mm
01:50 AM 33.2°F0.7°C 30.0°F-1.1°C 88% Calm Calm 3.5 mph5.6 kmh 29.70 in1005.8 mb - 0.00 in0.0 mm 0.00 in0.0 mm
02:00 AM 33.5°F0.8°C 30.3°F-0.9°C 88% Calm Calm 2.3 mph3.7 kmh 29.70 in1005.8 mb - 0.00 in0.0 mm 0.00 in0.0 mm
02:10 AM 33.8°F1.0°C 30.6°F-0.8°C 88% 1.2 mph W1.9 kmh W 2.3 mph3.7 kmh 29.70 in1005.8 mb - 0.00 in0.0 mm 0.00 in0.0 mm
02:20 AM 34.3°F1.3°C 30.8°F-0.7°C 87% Calm Calm -- 29.71 in1006.1 mb - 0.00 in0.0 mm 0.00 in0.0 mm
02:30 AM 34.6°F1.4°C 30.8°F-0.7°C 86% 1.2 mph WNW1.9 kmh WNW 3.5 mph5.6 kmh 29.71 in1006.1 mb - 0.00 in0.0 mm 0.00 in0.0 mm
02:40 AM 34.9°F1.6°C 30.8°F-0.7°C 85% 1.2 mph W1.9 kmh W 3.5 mph5.6 kmh 29.71 in1006.1 mb - 0.00 in0.0 mm 0.00 in0.0 mm
02:50 AM 35.3°F1.8°C 30.6°F-0.8°C 83% 1.2 mph WNW1.9 kmh WNW 3.5 mph5.6 kmh 29.72 in1006.4 mb - 0.00 in0.0 mm 0.00 in0.0 mm
03:00 AM 35.6°F2.0°C 30.6°F-0.8°C 82% 3.5 mph W5.6 kmh W 5.8 mph9.3 kmh 29.73 in1006.8 mb - 0.00 in0.0 mm 0.00 in0.0 mm
03:10 AM 35.9°F2.2°C 30.3°F-0.9°C 80% 1.2 mph NW1.9 kmh NW 4.6 mph7.4 kmh 29.73 in1006.8 mb - 0.00 in0.0 mm 0.00 in0.0 mm
03:20 AM 36.0°F2.2°C 30.1°F-1.1°C 79% Calm Calm -- 29.73 in1006.8 mb - 0.00 in0.0 mm 0.00 in0.0 mm
03:30 AM 36.2°F2.3°C 30.0°F-1.1°C 78% Calm Calm 3.5 mph5.6 kmh 29.74 in1007.1 mb - 0.00 in0.0 mm 0.00 in0.0 mm
03:40 AM 36.4°F2.4°C 29.9°F-1.2°C 77% Calm Calm 3.5 mph5.6 kmh 29.74 in1007.1 mb - 0.00 in0.0 mm 0.00 in0.0 mm
03:50 AM 36.4°F2.4°C 29.6°F-1.3°C 76% Calm Calm 1.2 mph1.9 kmh 29.75 in1007.5 mb - 0.00 in0.0 mm 0.00 in0.0 mm
04:00 AM 36.5°F2.5°C 29.3°F-1.5°C 75% Calm Calm -- 29.75 in1007.5 mb - 0.00 in0.0 mm 0.00 in0.0 mm
04:10 AM 36.5°F2.5°C 29.3°F-1.5°C 75% Calm Calm 1.2 mph1.9 kmh 29.75 in1007.5 mb - 0.00 in0.0 mm 0.00 in0.0 mm
04:20 AM 36.5°F2.5°C 29.3°F-1.5°C 75% 2.3 mph W3.7 kmh W 10.4 mph16.7 kmh 29.75 in1007.5 mb - 0.00 in0.0 mm 0.00 in0.0 mm
04:30 AM 36.5°F2.5°C 29.0°F-1.7°C 74% 2.3 mph WNW3.7 kmh WNW 4.6 mph7.4 kmh 29.75 in1007.5 mb - 0.00 in0.0 mm 0.00 in0.0 mm
04:40 AM 36.4°F2.4°C 28.6°F-1.9°C 73% 3.5 mph NW5.6 kmh NW 5.8 mph9.3 kmh 29.75 in1007.5 mb - 0.00 in0.0 mm 0.00 in0.0 mm
04:50 AM 36.2°F2.3°C 28.0°F-2.2°C 72% 3.5 mph NW5.6 kmh NW 6.9 mph11.1 kmh 29.75 in1007.5 mb - 0.00 in0.0 mm 0.00 in0.0 mm
05:00 AM 36.0°F2.2°C 27.2°F-2.7°C 70% 2.3 mph NW3.7 kmh NW 8.1 mph13.0 kmh 29.76 in1007.8 mb - 0.00 in0.0 mm 0.00 in0.0 mm
05:10 AM 35.7°F2.1°C 26.9°F-2.8°C 70% 3.5 mph NW5.6 kmh NW 11.5 mph18.5 kmh 29.77 in1008.1 mb - 0.00 in0.0 mm 0.00 in0.0 mm
05:20 AM 35.4°F1.9°C 26.3°F-3.2°C 69% 1.2 mph WNW1.9 kmh WNW 3.5 mph5.6 kmh 29.77 in1008.1 mb - 0.00 in0.0 mm 0.00 in0.0 mm
05:30 AM 35.1°F1.7°C 25.9°F-3.4°C 69% 4.6 mph WNW7.4 kmh WNW 9.2 mph14.8 kmh 29.77 in1008.1 mb - 0.00 in0.0 mm 0.00 in0.0 mm
05:40 AM 34.7°F1.5°C 25.9°F-3.4°C 70% 4.6 mph WNW7.4 kmh WNW 10.4 mph16.7 kmh 29.78 in1008.5 mb - 0.00 in0.0 mm 0.00 in0.0 mm
05:50 AM 34.3°F1.3°C 25.2°F-3.8°C 69% 4.6 mph NW7.4 kmh NW 15.0 mph24.1 kmh 29.79 in1008.8 mb - 0.00 in0.0 mm 0.00 in0.0 mm
06:00 AM 33.6°F0.9°C 23.1°F-4.9°C 65% 4.6 mph WNW7.4 kmh WNW 12.7 mph20.4 kmh 29.80 in1009.1 mb - 0.00 in0.0 mm 0.00 in0.0 mm
06:10 AM 32.9°F0.5°C 21.7°F-5.7°C 63% 5.8 mph NW9.3 kmh NW 11.5 mph18.5 kmh 29.80 in1009.1 mb - 0.00 in0.0 mm 0.00 in0.0 mm
06:20 AM 32.4°F0.2°C 21.6°F-5.8°C 64% 2.3 mph NW3.7 kmh NW 3.5 mph5.6 kmh 29.81 in1009.5 mb - 0.00 in0.0 mm 0.00 in0.0 mm
06:30 AM 32.0°F0.0°C 21.9°F-5.6°C 66% 3.5 mph WNW5.6 kmh WNW 10.4 mph16.7 kmh 29.82 in1009.8 mb - 0.00 in0.0 mm 0.00 in0.0 mm
06:40 AM 31.7°F-0.2°C 22.0°F-5.6°C 67% 3.5 mph W5.6 kmh W 6.9 mph11.1 kmh 29.83 in1010.2 mb - 0.00 in0.0 mm 0.00 in0.0 mm
06:50 AM 31.4°F-0.3°C 21.7°F-5.7°C 67% 2.3 mph WNW3.7 kmh WNW 4.6 mph7.4 kmh 29.83 in1010.2 mb - 0.00 in0.0 mm 0.00 in0.0 mm
07:00 AM 31.1°F-0.5°C 21.1°F-6.1°C 66% 4.6 mph WSW7.4 kmh WSW 4.6 mph7.4 kmh 29.83 in1010.2 mb - 0.00 in0.0 mm 0.00 in0.0 mm
07:10 AM 30.9°F-0.6°C 20.9°F-6.2°C 66% 4.6 mph W7.4 kmh W 5.8 mph9.3 kmh 29.84 in1010.5 mb - 0.00 in0.0 mm 0.00 in0.0 mm
07:20 AM 30.7°F-0.7°C 20.7°F-6.3°C 66% 4.6 mph NW7.4 kmh NW 12.7 mph20.4 kmh 29.84 in1010.5 mb - 0.00 in0.0 mm 0.00 in0.0 mm
07:30 AM 30.5°F-0.8°C 20.5°F-6.4°C 66% 2.3 mph W3.7 kmh W 3.5 mph5.6 kmh 29.85 in1010.8 mb - 0.00 in0.0 mm 0.00 in0.0 mm
07:40 AM 30.3°F-0.9°C 20.3°F-6.5°C 66% 4.6 mph WNW7.4 kmh WNW 11.5 mph18.5 kmh 29.85 in1010.8 mb - 0.00 in0.0 mm 0.00 in0.0 mm
07:50 AM 30.2°F-1.0°C 20.2°F-6.6°C 66% 5.8 mph W9.3 kmh W 11.5 mph18.5 kmh 29.85 in1010.8 mb - 0.00 in0.0 mm 0.00 in0.0 mm
08:00 AM 30.1°F-1.1°C 19.7°F-6.8°C 65% 4.6 mph WNW7.4 kmh WNW 5.8 mph9.3 kmh 29.85 in1010.8 mb - 0.00 in0.0 mm 0.00 in0.0 mm
08:10 AM 29.8°F-1.2°C 19.5°F-6.9°C 65% 3.5 mph NW5.6 kmh NW 8.1 mph13.0 kmh 29.85 in1010.8 mb - 0.00 in0.0 mm 0.00 in0.0 mm
08:20 AM 29.7°F-1.3°C 19.4°F-7.0°C 65% 3.5 mph W5.6 kmh W 4.6 mph7.4 kmh 29.85 in1010.8 mb - 0.00 in0.0 mm 0.00 in0.0 mm
08:30 AM 29.6°F-1.3°C 18.9°F-7.3°C 64% 4.6 mph NW7.4 kmh NW 13.8 mph22.2 kmh 29.85 in1010.8 mb - 0.00 in0.0 mm 0.00 in0.0 mm
08:40 AM 29.3°F-1.5°C 18.6°F-7.4°C 64% 6.9 mph WNW11.1 kmh WNW 12.7 mph20.4 kmh 29.85 in1010.8 mb - 0.00 in0.0 mm 0.00 in0.0 mm
08:50 AM 29.1°F-1.6°C 18.4°F-7.6°C 64% 3.5 mph NW5.6 kmh NW 5.8 mph9.3 kmh 29.86 in1011.2 mb - 0.00 in0.0 mm 0.00 in0.0 mm
09:00 AM 29.0°F-1.7°C 18.3°F-7.6°C 64% 5.8 mph WNW9.3 kmh WNW 16.1 mph25.9 kmh 29.86 in1011.2 mb - 0.00 in0.0 mm 0.00 in0.0 mm
09:10 AM 29.1°F-1.6°C 18.4°F-7.6°C 64% 4.6 mph WNW7.4 kmh WNW 8.1 mph13.0 kmh 29.86 in1011.2 mb - 0.00 in0.0 mm 0.00 in0.0 mm
09:20 AM 29.2°F-1.6°C 18.5°F-7.5°C 64% 5.8 mph NW9.3 kmh NW 9.2 mph14.8 kmh 29.87 in1011.5 mb - 0.00 in0.0 mm 0.00 in0.0 mm
09:30 AM 29.2°F-1.6°C 18.2°F-7.7°C 63% 4.6 mph NW7.4 kmh NW 6.9 mph11.1 kmh 29.87 in1011.5 mb - 0.00 in0.0 mm 0.00 in0.0 mm
09:40 AM 29.1°F-1.6°C 18.1°F-7.7°C 63% 4.6 mph WNW7.4 kmh WNW 10.4 mph16.7 kmh 29.88 in1011.9 mb - 0.00 in0.0 mm 0.00 in0.0 mm
09:50 AM 29.2°F-1.6°C 18.2°F-7.7°C 63% 5.8 mph WNW9.3 kmh WNW 15.0 mph24.1 kmh 29.88 in1011.9 mb - 0.00 in0.0 mm 0.00 in0.0 mm
10:00 AM 29.2°F-1.6°C 18.2°F-7.7°C 63% 8.1 mph WNW13.0 kmh WNW 13.8 mph22.2 kmh 29.89 in1012.2 mb - 0.00 in0.0 mm 0.00 in0.0 mm
10:10 AM 28.9°F-1.7°C 17.2°F-8.2°C 61% 9.2 mph W14.8 kmh W 16.1 mph25.9 kmh 29.89 in1012.2 mb - 0.00 in0.0 mm 0.00 in0.0 mm
10:20 AM 28.7°F-1.8°C 17.3°F-8.2°C 62% 4.6 mph NW7.4 kmh NW 10.4 mph16.7 kmh 29.90 in1012.5 mb - 0.00 in0.0 mm 0.00 in0.0 mm
10:30 AM 28.4°F-2.0°C 17.0°F-8.3°C 62% 6.9 mph NW11.1 kmh NW 15.0 mph24.1 kmh 29.90 in1012.5 mb - 0.00 in0.0 mm 0.00 in0.0 mm
10:40 AM 27.9°F-2.3°C 15.8°F-9.0°C 60% 10.4 mph NW16.7 kmh NW 18.4 mph29.6 kmh 29.91 in1012.9 mb - 0.00 in0.0 mm 0.00 in0.0 mm
10:50 AM 27.2°F-2.7°C 14.4°F-9.8°C 58% 4.6 mph NW7.4 kmh NW 4.6 mph7.4 kmh 29.91 in1012.9 mb - 0.01 in0.3 mm 0.01 in0.3 mm
11:00 AM 26.9°F-2.8°C 14.4°F-9.8°C 59% 4.6 mph NW7.4 kmh NW 8.1 mph13.0 kmh 29.91 in1012.9 mb - 0.00 in0.0 mm 0.01 in0.3 mm
11:10 AM 26.7°F-2.9°C 14.3°F-9.8°C 59% 8.1 mph NW13.0 kmh NW 15.0 mph24.1 kmh 29.91 in1012.9 mb - 0.00 in0.0 mm 0.01 in0.3 mm
11:20 AM 26.5°F-3.1°C 14.1°F-9.9°C 59% 5.8 mph WNW9.3 kmh WNW 13.8 mph22.2 kmh 29.92 in1013.2 mb - 0.00 in0.0 mm 0.01 in0.3 mm
11:30 AM 25.8°F-3.4°C 12.6°F-10.8°C 57% 8.1 mph WNW13.0 kmh WNW 11.5 mph18.5 kmh 29.93 in1013.5 mb - 0.00 in0.0 mm 0.01 in0.3 mm
11:40 AM 25.7°F-3.5°C 12.9°F-10.6°C 58% 8.1 mph W13.0 kmh W 13.8 mph22.2 kmh 29.94 in1013.9 mb - 0.00 in0.0 mm 0.01 in0.3 mm
11:50 AM 25.5°F-3.6°C 12.4°F-10.9°C 57% 5.8 mph WNW9.3 kmh WNW 11.5 mph18.5 kmh 29.94 in1013.9 mb - 0.00 in0.0 mm 0.01 in0.3 mm
12:00 PM 25.1°F-3.8°C 12.8°F-10.7°C 59% 5.8 mph NW9.3 kmh NW 10.4 mph16.7 kmh 29.94 in1013.9 mb - 0.00 in0.0 mm 0.01 in0.3 mm
12:10 PM 25.1°F-3.8°C 12.4°F-10.9°C 58% 9.2 mph W14.8 kmh W 23.0 mph37.0 kmh 29.94 in1013.9 mb - 0.00 in0.0 mm 0.01 in0.3 mm
12:20 PM 25.2°F-3.8°C 13.2°F-10.4°C 60% 3.5 mph WNW5.6 kmh WNW 9.2 mph14.8 kmh 29.94 in1013.9 mb - 0.00 in0.0 mm 0.01 in0.3 mm
12:30 PM 24.4°F-4.2°C 12.9°F-10.6°C 61% 6.9 mph WSW11.1 kmh WSW 20.7 mph33.3 kmh 29.95 in1014.2 mb - 0.00 in0.0 mm 0.01 in0.3 mm
12:40 PM 23.3°F-4.8°C 10.3°F-12.1°C 57% 2.3 mph WNW3.7 kmh WNW 19.6 mph31.5 kmh 29.95 in1014.2 mb - 0.00 in0.0 mm 0.01 in0.3 mm
12:50 PM 23.4°F-4.8°C 10.4°F-12.0°C 57% 8.1 mph WNW13.0 kmh WNW 15.0 mph24.1 kmh 29.95 in1014.2 mb - 0.00 in0.0 mm 0.01 in0.3 mm
01:00 PM 23.1°F-4.9°C 9.7°F-12.4°C 56% 5.8 mph NW9.3 kmh NW 15.0 mph24.1 kmh 29.96 in1014.6 mb - 0.00 in0.0 mm 0.01 in0.3 mm
01:10 PM 22.8°F-5.1°C 9.4°F-12.6°C 56% 6.9 mph WNW11.1 kmh WNW 18.4 mph29.6 kmh 29.96 in1014.6 mb - 0.00 in0.0 mm 0.01 in0.3 mm
01:20 PM 23.0°F-5.0°C 9.3°F-12.6°C 55% 6.9 mph W11.1 kmh W 19.6 mph31.5 kmh 29.96 in1014.6 mb - 0.00 in0.0 mm 0.01 in0.3 mm
01:30 PM 22.4°F-5.3°C 9.1°F-12.7°C 56% 5.8 mph W9.3 kmh W 13.8 mph22.2 kmh 29.97 in1014.9 mb - 0.00 in0.0 mm 0.01 in0.3 mm
01:40 PM 21.5°F-5.8°C 8.2°F-13.2°C 56% 6.9 mph WNW11.1 kmh WNW 11.5 mph18.5 kmh 29.98 in1015.2 mb - 0.00 in0.0 mm 0.01 in0.3 mm
01:50 PM 20.9°F-6.2°C 7.6°F-13.6°C 56% 4.6 mph WNW7.4 kmh WNW 10.4 mph16.7 kmh 29.99 in1015.6 mb - 0.00 in0.0 mm 0.01 in0.3 mm
02:00 PM 20.4°F-6.4°C 7.2°F-13.8°C 56% 6.9 mph NW11.1 kmh NW 16.1 mph25.9 kmh 30.00 in1015.9 mb - 0.00 in0.0 mm 0.01 in0.3 mm
02:10 PM 20.7°F-6.3°C 7.4°F-13.7°C 56% 5.8 mph NW9.3 kmh NW 12.7 mph20.4 kmh 30.00 in1015.9 mb - 0.00 in0.0 mm 0.01 in0.3 mm
02:20 PM 20.8°F-6.2°C 7.9°F-13.4°C 57% 3.5 mph W5.6 kmh W 9.2 mph14.8 kmh 30.01 in1016.3 mb - 0.00 in0.0 mm 0.01 in0.3 mm
02:30 PM 20.2°F-6.6°C 7.8°F-13.4°C 58% 5.8 mph W9.3 kmh W 12.7 mph20.4 kmh 30.02 in1016.6 mb - 0.00 in0.0 mm 0.01 in0.3 mm
02:40 PM 19.8°F-6.8°C 7.8°F-13.4°C 59% 5.8 mph NW9.3 kmh NW 15.0 mph24.1 kmh 30.03 in1016.9 mb - 0.00 in0.0 mm 0.01 in0.3 mm
02:50 PM 19.5°F-6.9°C 7.9°F-13.4°C 60% 8.1 mph NW13.0 kmh NW 13.8 mph22.2 kmh 30.04 in1017.3 mb - 0.00 in0.0 mm 0.01 in0.3 mm
03:00 PM 19.2°F-7.1°C 7.2°F-13.8°C 59% 8.1 mph WNW13.0 kmh WNW 15.0 mph24.1 kmh 30.04 in1017.3 mb - 0.00 in0.0 mm 0.01 in0.3 mm
03:10 PM 19.1°F-7.2°C 7.5°F-13.6°C 60% 9.2 mph WNW14.8 kmh WNW 18.4 mph29.6 kmh 30.05 in1017.6 mb - 0.00 in0.0 mm 0.01 in0.3 mm
03:20 PM 19.1°F-7.2°C 7.4°F-13.7°C 60% 6.9 mph NW11.1 kmh NW 18.4 mph29.6 kmh 30.06 in1017.9 mb - 0.00 in0.0 mm 0.01 in0.3 mm
03:30 PM 18.9°F-7.3°C 7.3°F-13.7°C 60% 8.1 mph WNW13.0 kmh WNW 13.8 mph22.2 kmh 30.06 in1017.9 mb - 0.00 in0.0 mm 0.01 in0.3 mm
03:40 PM 18.6°F-7.4°C 7.4°F-13.7°C 61% 3.5 mph NW5.6 kmh NW 10.4 mph16.7 kmh 30.07 in1018.3 mb - 0.00 in0.0 mm 0.01 in0.3 mm
03:50 PM 18.3°F-7.6°C 7.4°F-13.7°C 62% 5.8 mph W9.3 kmh W 11.5 mph18.5 kmh 30.08 in1018.6 mb - 0.00 in0.0 mm 0.01 in0.3 mm
04:00 PM 18.1°F-7.7°C 7.6°F-13.6°C 63% 2.3 mph WNW3.7 kmh WNW 3.5 mph5.6 kmh 30.09 in1019.0 mb - 0.00 in0.0 mm 0.01 in0.3 mm
04:10 PM 18.1°F-7.7°C 7.3°F-13.7°C 62% 2.3 mph NNW3.7 kmh NNW 5.8 mph9.3 kmh 30.09 in1019.0 mb - 0.00 in0.0 mm 0.01 in0.3 mm
04:20 PM 18.2°F-7.7°C 7.0°F-13.9°C 61% 4.6 mph WNW7.4 kmh WNW 5.8 mph9.3 kmh 30.10 in1019.3 mb - 0.00 in0.0 mm 0.01 in0.3 mm
04:30 PM 18.0°F-7.8°C 6.4°F-14.2°C 60% 5.8 mph WNW9.3 kmh WNW 15.0 mph24.1 kmh 30.11 in1019.6 mb - 0.00 in0.0 mm 0.01 in0.3 mm
04:40 PM 17.8°F-7.9°C 6.3°F-14.3°C 60% 8.1 mph NW13.0 kmh NW 10.4 mph16.7 kmh 30.11 in1019.6 mb - 0.00 in0.0 mm 0.01 in0.3 mm
04:50 PM 17.6°F-8.0°C 6.4°F-14.2°C 61% 4.6 mph W7.4 kmh W 13.8 mph22.2 kmh 30.12 in1020.0 mb - 0.00 in0.0 mm 0.01 in0.3 mm
05:00 PM 17.5°F-8.1°C 6.3°F-14.3°C 61% 2.3 mph NW3.7 kmh NW 8.1 mph13.0 kmh 30.12 in1020.0 mb - 0.00 in0.0 mm 0.01 in0.3 mm
05:10 PM 17.2°F-8.2°C 6.0°F-14.4°C 61% 3.5 mph NW5.6 kmh NW 8.1 mph13.0 kmh 30.13 in1020.3 mb - 0.00 in0.0 mm 0.01 in0.3 mm
05:20 PM 17.0°F-8.3°C 6.2°F-14.3°C 62% 5.8 mph NW9.3 kmh NW 12.7 mph20.4 kmh 30.14 in1020.7 mb - 0.00 in0.0 mm 0.01 in0.3 mm
05:30 PM 16.8°F-8.4°C 6.0°F-14.4°C 62% 5.8 mph NW9.3 kmh NW 18.4 mph29.6 kmh 30.14 in1020.7 mb - 0.00 in0.0 mm 0.01 in0.3 mm
05:40 PM 16.6°F-8.6°C 5.8°F-14.6°C 62% 3.5 mph NW5.6 kmh NW 9.2 mph14.8 kmh 30.14 in1020.7 mb - 0.00 in0.0 mm 0.01 in0.3 mm
05:50 PM 16.4°F-8.7°C 5.6°F-14.7°C 62% 3.5 mph WNW5.6 kmh WNW 11.5 mph18.5 kmh 30.14 in1020.7 mb - 0.00 in0.0 mm 0.01 in0.3 mm
06:00 PM 16.2°F-8.8°C 5.8°F-14.6°C 63% 8.1 mph W13.0 kmh W 17.3 mph27.8 kmh 30.14 in1020.7 mb - 0.00 in0.0 mm 0.01 in0.3 mm
06:10 PM 15.9°F-8.9°C 5.2°F-14.9°C 62% 4.6 mph NNW7.4 kmh NNW 9.2 mph14.8 kmh 30.15 in1021.0 mb - 0.00 in0.0 mm 0.01 in0.3 mm
06:20 PM 15.8°F-9.0°C 5.1°F-14.9°C 62% 5.8 mph W9.3 kmh W 16.1 mph25.9 kmh 30.16 in1021.3 mb - 0.00 in0.0 mm 0.01 in0.3 mm
06:30 PM 15.7°F-9.1°C 5.3°F-14.8°C 63% 5.8 mph WNW9.3 kmh WNW 15.0 mph24.1 kmh 30.17 in1021.7 mb - 0.00 in0.0 mm 0.01 in0.3 mm
06:40 PM 15.7°F-9.1°C 5.3°F-14.8°C 63% 5.8 mph NW9.3 kmh NW 10.4 mph16.7 kmh 30.18 in1022.0 mb - 0.00 in0.0 mm 0.01 in0.3 mm
06:50 PM 15.7°F-9.1°C 5.0°F-15.0°C 62% 3.5 mph NW5.6 kmh NW 9.2 mph14.8 kmh 30.18 in1022.0 mb - 0.00 in0.0 mm 0.01 in0.3 mm
07:00 PM 15.5°F-9.2°C 5.1°F-14.9°C 63% 5.8 mph W9.3 kmh W 12.7 mph20.4 kmh 30.18 in1022.0 mb - 0.00 in0.0 mm 0.01 in0.3 mm
07:10 PM 15.3°F-9.3°C 4.3°F-15.4°C 61% 5.8 mph NW9.3 kmh NW 10.4 mph16.7 kmh 30.19 in1022.4 mb - 0.00 in0.0 mm 0.01 in0.3 mm
07:20 PM 15.2°F-9.3°C 4.5°F-15.3°C 62% 3.5 mph NW5.6 kmh NW 8.1 mph13.0 kmh 30.20 in1022.7 mb - 0.00 in0.0 mm 0.01 in0.3 mm
07:30 PM 15.0°F-9.4°C 4.7°F-15.2°C 63% 2.3 mph NW3.7 kmh NW 8.1 mph13.0 kmh 30.20 in1022.7 mb - 0.00 in0.0 mm 0.01 in0.3 mm
07:40 PM 14.9°F-9.5°C 4.2°F-15.4°C 62% 4.6 mph NW7.4 kmh NW 9.2 mph14.8 kmh 30.21 in1023.0 mb - 0.00 in0.0 mm 0.01 in0.3 mm
07:50 PM 14.8°F-9.6°C 4.5°F-15.3°C 63% 1.2 mph W1.9 kmh W 4.6 mph7.4 kmh 30.20 in1022.7 mb - 0.00 in0.0 mm 0.01 in0.3 mm
08:00 PM 14.7°F-9.6°C 4.4°F-15.3°C 63% 4.6 mph NW7.4 kmh NW 9.2 mph14.8 kmh 30.21 in1023.0 mb - 0.00 in0.0 mm 0.01 in0.3 mm
08:10 PM 14.6°F-9.7°C 4.3°F-15.4°C 63% 4.6 mph NW7.4 kmh NW 11.5 mph18.5 kmh 30.22 in1023.4 mb - 0.00 in0.0 mm 0.01 in0.3 mm
08:20 PM 14.6°F-9.7°C 4.6°F-15.2°C 64% 9.2 mph NW14.8 kmh NW 10.4 mph16.7 kmh 30.21 in1023.0 mb - 0.00 in0.0 mm 0.01 in0.3 mm
08:30 PM 14.5°F-9.7°C 4.2°F-15.4°C 63% 4.6 mph WSW7.4 kmh WSW 9.2 mph14.8 kmh 30.22 in1023.4 mb - 0.00 in0.0 mm 0.01 in0.3 mm
08:40 PM 14.5°F-9.7°C 4.5°F-15.3°C 64% 3.5 mph NW5.6 kmh NW 13.8 mph22.2 kmh 30.22 in1023.4 mb - 0.00 in0.0 mm 0.01 in0.3 mm
08:50 PM 14.5°F-9.7°C 4.2°F-15.4°C 63% 3.5 mph NW5.6 kmh NW 10.4 mph16.7 kmh 30.22 in1023.4 mb - 0.00 in0.0 mm 0.01 in0.3 mm
09:00 PM 14.5°F-9.7°C 4.5°F-15.3°C 64% 2.3 mph NW3.7 kmh NW 9.2 mph14.8 kmh 30.22 in1023.4 mb - 0.00 in0.0 mm 0.01 in0.3 mm
09:10 PM 14.4°F-9.8°C 4.4°F-15.3°C 64% 3.5 mph NW5.6 kmh NW 4.6 mph7.4 kmh 30.23 in1023.7 mb - 0.00 in0.0 mm 0.01 in0.3 mm
09:20 PM 14.3°F-9.8°C 4.3°F-15.4°C 64% 4.6 mph W7.4 kmh W 12.7 mph20.4 kmh 30.23 in1023.7 mb - 0.00 in0.0 mm 0.01 in0.3 mm
09:30 PM 14.1°F-9.9°C 4.1°F-15.5°C 64% 3.5 mph NW5.6 kmh NW 6.9 mph11.1 kmh 30.24 in1024.0 mb - 0.00 in0.0 mm 0.01 in0.3 mm
09:40 PM 13.9°F-10.1°C 4.0°F-15.6°C 64% 2.3 mph NW3.7 kmh NW 4.6 mph7.4 kmh 30.24 in1024.0 mb - 0.00 in0.0 mm 0.01 in0.3 mm
09:50 PM 13.6°F-10.2°C 3.7°F-15.7°C 64% 4.6 mph WNW7.4 kmh WNW 6.9 mph11.1 kmh 30.25 in1024.4 mb - 0.00 in0.0 mm 0.01 in0.3 mm
10:00 PM 13.5°F-10.3°C 3.5°F-15.8°C 64% 4.6 mph W7.4 kmh W 9.2 mph14.8 kmh 30.25 in1024.4 mb - 0.00 in0.0 mm 0.01 in0.3 mm
10:10 PM 13.2°F-10.4°C 3.3°F-15.9°C 64% 8.1 mph NW13.0 kmh NW 16.1 mph25.9 kmh 30.26 in1024.7 mb - 0.00 in0.0 mm 0.01 in0.3 mm
10:20 PM 13.0°F-10.6°C 2.8°F-16.2°C 63% 1.2 mph WNW1.9 kmh WNW 9.2 mph14.8 kmh 30.27 in1025.1 mb - 0.00 in0.0 mm 0.01 in0.3 mm
10:30 PM 12.8°F-10.7°C 2.9°F-16.2°C 64% 4.6 mph NW7.4 kmh NW 11.5 mph18.5 kmh 30.27 in1025.1 mb - 0.00 in0.0 mm 0.01 in0.3 mm
10:40 PM 12.5°F-10.8°C 2.3°F-16.5°C 63% 2.3 mph NW3.7 kmh NW 9.2 mph14.8 kmh 30.27 in1025.1 mb - 0.00 in0.0 mm 0.01 in0.3 mm
10:50 PM 12.4°F-10.9°C 2.5°F-16.4°C 64% 2.3 mph NW3.7 kmh NW 6.9 mph11.1 kmh 30.27 in1025.1 mb - 0.00 in0.0 mm 0.01 in0.3 mm
11:00 PM 12.2°F-11.0°C 2.0°F-16.7°C 63% 9.2 mph NW14.8 kmh NW 15.0 mph24.1 kmh 30.27 in1025.1 mb - 0.00 in0.0 mm 0.01 in0.3 mm
11:10 PM 12.1°F-11.1°C 1.9°F-16.7°C 63% 3.5 mph NW5.6 kmh NW 11.5 mph18.5 kmh 30.27 in1025.1 mb - 0.00 in0.0 mm 0.01 in0.3 mm
11:20 PM 11.9°F-11.2°C 1.7°F-16.8°C 63% 4.6 mph NNW7.4 kmh NNW 9.2 mph14.8 kmh 30.28 in1025.4 mb - 0.00 in0.0 mm 0.01 in0.3 mm
11:30 PM 11.7°F-11.3°C 1.5°F-16.9°C 63% 4.6 mph NW7.4 kmh NW 15.0 mph24.1 kmh 30.28 in1025.4 mb - 0.00 in0.0 mm 0.01 in0.3 mm
11:40 PM 11.6°F-11.3°C 1.4°F-17.0°C 63% 5.8 mph NW9.3 kmh NW 15.0 mph24.1 kmh 30.28 in1025.4 mb - 0.00 in0.0 mm 0.01 in0.3 mm
11:50 PM 11.4°F-11.4°C 1.2°F-17.1°C 63% 2.3 mph NW3.7 kmh NW 6.9 mph11.1 kmh 30.29 in1025.7 mb - 0.00 in0.0 mm 0.01 in0.3 mm